Akk, Virginia
Current Conditions -  °F | °C
As of 6:15 PM on Saturday 25 Oct 2014 (Local Time) from KFYJ Reporting Station
Clear Clear  
Wind Chill: 65°   Ceiling: Unl
Heat Index: 65°   Visibility: 10mi
Dew Point: 41°   Wind: 5mph
Humidity: 41%   Direction: 220°SW
Pressure: 29.84"   Gusts: NA
Location:  37.4383°N, 76.5764°W
Report Text: KFYJ 252215Z AUTO 22004KT 10SM CLR 19/05 A2984 RMK AO2 T01860052
Loading
Personal Weather Stations






























Interactive Weather Map
Tropical Storm Tracking
New forecast layout! Learn more

10-Day Weather Forecast

Advertisements
Track Severe Weather on mobile